Time;durP1;ratioP1;P1;durP2;ratioP2;P2;SDS_P1;SDS_P2;PMS_P1;PMS_P2;Temp;Humidity;BMP_temperature;BMP_pressure;BME280_temperature;BME280_humidity;BME280_pressure;Samples;Min_cycle;Max_cycle;Signal;HPM_P1;HPM_P2
2021/08/23 00:01:48;;;;;;;0.70;0.63;;;;;;;16.64;100.00;27472.28;5055589;28;20419;-73
2021/08/23 00:04:16;;;;;;;0.70;0.70;;;;;;;16.54;100.00;26469.34;5055253;28;20444;-72
2021/08/23 00:06:43;;;;;;;0.80;0.70;;;;;;;16.45;100.00;25456.75;5054783;28;20435;-72
2021/08/23 00:09:10;;;;;;;2.70;2.50;;;;;;;16.42;100.00;24673.88;5054201;28;20864;-73
2021/08/23 00:11:37;;;;;;;0.70;0.70;;;;;;;16.39;100.00;23434.44;5047609;28;20458;-71
2021/08/23 00:14:04;;;;;;;0.70;0.60;;;;;;;16.37;100.00;22206.50;5087530;28;20516;-73
2021/08/23 00:16:31;;;;;;;0.70;0.70;;;;;;;16.29;100.00;20508.38;5054952;28;20482;-72
2021/08/23 00:18:58;;;;;;;0.80;0.70;;;;;;;16.19;100.00;18877.31;5054761;28;20520;-72
2021/08/23 00:21:28;;;;;;;0.80;0.80;;;;;;;16.17;100.00;17117.06;5055003;28;20426;-72
2021/08/23 00:24:05;;;;;;;0.80;0.77;;;;;;;16.10;100.00;15338.56;5054573;28;20447;-73
2021/08/23 00:26:33;;;;;;;0.80;0.80;;;;;;;16.07;100.00;13578.03;5053318;28;20440;-73
2021/08/23 00:29:01;;;;;;;0.80;0.77;;;;;;;15.98;100.00;11406.00;5054705;28;20422;-72
2021/08/23 00:31:28;;;;;;;1.00;0.90;;;;;;;15.91;100.00;8992.00;5054380;28;20443;-71
2021/08/23 00:33:55;;;;;;;0.97;0.90;;;;;;;15.94;100.00;6561.56;5087163;28;20460;-72
2021/08/23 00:36:22;;;;;;;0.80;0.77;;;;;;;15.96;100.00;4524.59;5053206;28;20844;-72
2021/08/23 00:38:50;;;;;;;0.70;0.70;;;;;;;15.91;100.00;2350.63;5054276;28;20459;-72
2021/08/23 00:41:17;;;;;;;0.80;0.70;;;;;;;15.89;100.00;488.84;5044040;28;20925;-72
2021/08/23 00:43:44;;;;;;;0.70;0.60;;;;;;;15.85;100.00;-1478.63;5034572;28;20830;-72
2021/08/23 00:46:11;;;;;;;0.80;0.77;;;;;;;15.87;100.00;-3342.97;5049097;28;20496;-72
2021/08/23 00:48:38;;;;;;;0.80;0.80;;;;;;;15.87;100.00;-5013.50;5054539;28;20434;-72
2021/08/23 00:51:06;;;;;;;0.70;0.70;;;;;;;15.78;100.00;-6880.63;5053087;28;20550;-71
2021/08/23 00:53:35;;;;;;;0.80;0.80;;;;;;;15.68;100.00;-8746.06;5053666;28;21016;-72
2021/08/23 00:56:04;;;;;;;0.77;0.70;;;;;;;15.65;100.00;-9921.53;5054675;28;20510;-71
2021/08/23 00:58:32;;;;;;;0.70;0.70;;;;;;;15.58;100.00;-11237.84;5053761;28;20443;-72
2021/08/23 01:01:03;;;;;;;0.70;0.60;;;;;;;15.54;100.00;-12293.03;5054418;28;20431;-72
2021/08/23 01:03:36;;;;;;;0.80;0.70;;;;;;;15.51;100.00;-13353.00;5054250;28;20447;-72
2021/08/23 01:06:05;;;;;;;0.80;0.80;;;;;;;15.46;100.00;-14308.44;5068583;28;20525;-71
2021/08/23 01:08:38;;;;;;;0.70;0.70;;;;;;;15.41;100.00;-15374.69;5051822;28;20477;-71
2021/08/23 01:11:08;;;;;;;0.70;0.70;;;;;;;15.32;100.00;-16121.28;5033000;28;20434;-69
2021/08/23 01:13:39;;;;;;;0.80;0.70;;;;;;;15.30;100.00;-16858.75;5033080;28;20451;-70
2021/08/23 01:16:07;;;;;;;0.70;0.70;;;;;;;15.32;100.00;-17682.75;5034250;28;20437;-71
2021/08/23 01:18:34;;;;;;;0.87;0.87;;;;;;;15.32;100.00;-18435.41;5049126;28;20822;-72
2021/08/23 01:21:06;;;;;;;0.70;0.70;;;;;;;15.29;100.00;-19025.59;5068869;28;21037;-71
2021/08/23 01:23:35;;;;;;;0.70;0.63;;;;;;;15.22;100.00;-19544.06;5036258;28;20455;-70
2021/08/23 01:26:03;;;;;;;0.80;0.80;;;;;;;15.23;100.00;-19877.34;5036057;28;20536;-71
2021/08/23 01:28:45;;;;;;;0.80;0.73;;;;;;;15.37;100.00;-20320.03;5034821;28;20459;-72
2021/08/23 01:31:23;;;;;;;1.33;1.13;;;;;;;15.32;100.00;-20707.53;5052132;28;20441;-72
2021/08/23 01:33:53;;;;;;;0.70;0.70;;;;;;;15.20;100.00;-21002.16;5052959;28;20462;-72
2021/08/23 01:36:21;;;;;;;0.70;0.63;;;;;;;15.17;100.00;-21093.91;5054252;28;20873;-72
2021/08/23 01:38:50;;;;;;;0.70;0.70;;;;;;;15.10;100.00;-21092.13;5052953;28;20536;-72
2021/08/23 01:41:17;;;;;;;0.70;0.70;;;;;;;15.08;100.00;-21091.44;5050937;28;20457;-72
2021/08/23 01:43:44;;;;;;;0.80;0.70;;;;;;;15.06;100.00;-21090.88;5052342;28;20435;-72
2021/08/23 01:46:12;;;;;;;2.50;1.10;;;;;;;15.03;100.00;-21090.06;5053917;28;20433;-72
2021/08/23 01:48:39;;;;;;;0.80;0.70;;;;;;;15.02;100.00;-21089.94;5085695;28;20510;-72
2021/08/23 01:51:08;;;;;;;0.70;0.60;;;;;;;15.01;100.00;-21089.50;5086254;28;20432;-72
2021/08/23 01:53:35;;;;;;;0.70;0.70;;;;;;;15.00;100.00;-21089.25;5052142;28;20483;-72
2021/08/23 01:56:02;;;;;;;0.80;0.70;;;;;;;14.94;100.00;-21087.72;5053472;28;20484;-71
2021/08/23 01:58:29;;;;;;;0.90;0.90;;;;;;;14.90;100.00;-21086.75;5052263;28;20447;-72
2021/08/23 02:00:58;;;;;;;0.80;0.70;;;;;;;14.94;100.00;-21087.84;5053655;28;20772;-71
2021/08/23 02:03:25;;;;;;;1.20;1.10;;;;;;;14.90;100.00;-21086.75;5053389;28;20421;-72
2021/08/23 02:05:52;;;;;;;0.80;0.73;;;;;;;14.86;100.00;-21085.66;5052894;28;20437;-72
2021/08/23 02:08:20;;;;;;;0.70;0.60;;;;;;;14.81;100.00;-21084.28;5052069;28;20462;-72
2021/08/23 02:10:47;;;;;;;0.70;0.60;;;;;;;14.79;100.00;-21083.72;5052446;28;20457;-72
2021/08/23 02:13:14;;;;;;;0.80;0.70;;;;;;;14.81;100.00;-21084.16;5053417;28;20965;-72
2021/08/23 02:15:41;;;;;;;0.73;0.70;;;;;;;14.84;100.00;-21085.13;5053541;28;20951;-72
2021/08/23 02:18:08;;;;;;;0.70;0.70;;;;;;;14.93;100.00;-21087.59;5052988;28;20522;-72
2021/08/23 02:20:35;;;;;;;0.70;0.70;;;;;;;14.98;100.00;-21088.97;5053253;28;20737;-72
2021/08/23 02:23:02;;;;;;;0.80;0.70;;;;;;;15.06;100.00;-21090.88;5051493;28;20545;-72
2021/08/23 02:25:31;;;;;;;0.70;0.70;;;;;;;15.09;100.00;-21091.72;5052866;28;20433;-72
2021/08/23 02:27:58;;;;;;;0.73;0.70;;;;;;;15.12;100.00;-21092.53;5052323;28;20449;-73
2021/08/23 02:30:25;;;;;;;0.70;0.70;;;;;;;15.21;100.00;-21095.00;5053596;28;20421;-72
2021/08/23 02:32:51;;;;;;;0.70;0.70;;;;;;;15.20;100.00;-21094.75;5056556;28;20476;-72
2021/08/23 02:35:18;;;;;;;0.70;0.60;;;;;;;15.20;100.00;-21094.75;5057112;28;20493;-72
2021/08/23 02:37:45;;;;;;;0.70;0.60;;;;;;;15.15;100.00;-21093.38;5055019;28;20468;-71
2021/08/23 02:40:13;;;;;;;0.70;0.60;;;;;;;15.14;100.00;-21093.22;5056429;28;20434;-72
2021/08/23 02:42:41;;;;;;;0.70;0.60;;;;;;;15.15;100.00;-21093.38;5089004;28;20436;-72
2021/08/23 02:45:09;;;;;;;0.80;0.70;;;;;;;15.15;100.00;-21093.38;5057179;28;20492;-71
2021/08/23 02:47:36;;;;;;;0.73;0.73;;;;;;;15.10;100.00;-21092.00;5054645;28;20530;-72
2021/08/23 02:50:05;;;;;;;0.70;0.60;;;;;;;15.10;100.00;-21092.00;5055542;28;20806;-72
2021/08/23 02:52:32;;;;;;;0.70;0.70;;;;;;;15.05;100.00;-21090.75;5055703;28;20431;-71
2021/08/23 02:55:00;;;;;;;0.70;0.70;;;;;;;15.01;100.00;-21089.50;5057785;28;20457;-71
2021/08/23 02:57:27;;;;;;;0.70;0.60;;;;;;;15.00;100.00;-21089.38;5055259;28;20454;-72
2021/08/23 02:59:56;;;;;;;0.97;0.87;;;;;;;15.00;100.00;-21089.38;5056566;28;20530;-72
2021/08/23 03:02:23;;;;;;;0.80;0.80;;;;;;;14.95;100.00;-21088.13;5055296;28;20452;-72
2021/08/23 03:04:51;;;;;;;0.70;0.70;;;;;;;14.91;100.00;-21086.91;5056845;28;20478;-71
2021/08/23 03:07:18;;;;;;;0.90;0.90;;;;;;;14.84;100.00;-21085.13;5055232;28;20479;-72
2021/08/23 03:09:45;;;;;;;0.70;0.63;;;;;;;14.94;100.00;-21087.84;5056274;28;20971;-73
2021/08/23 03:12:12;;;;;;;0.80;0.80;;;;;;;15.02;100.00;-21089.78;5055913;28;20928;-72
2021/08/23 03:14:39;;;;;;;0.70;0.70;;;;;;;15.04;100.00;-21090.34;5055802;28;20467;-71
2021/08/23 03:17:08;;;;;;;0.70;0.60;;;;;;;15.12;100.00;-21092.69;5056059;28;20457;-71
2021/08/23 03:19:36;;;;;;;0.70;0.70;;;;;;;15.17;100.00;-21093.91;5055221;28;20433;-71
2021/08/23 03:22:03;;;;;;;0.80;0.80;;;;;;;15.15;100.00;-21093.38;5056482;28;20417;-72
2021/08/23 03:24:31;;;;;;;0.70;0.70;;;;;;;15.14;100.00;-21093.09;5055758;28;20455;-72
2021/08/23 03:26:58;;;;;;;0.70;0.60;;;;;;;15.20;100.00;-21094.88;5053573;28;20462;-72
2021/08/23 03:29:25;;;;;;;0.70;0.70;;;;;;;15.23;100.00;-21095.56;5055972;28;20461;-72
2021/08/23 03:31:52;;;;;;;0.80;0.80;;;;;;;15.21;100.00;-21095.00;5059221;28;20861;-71
2021/08/23 03:34:21;;;;;;;1.10;1.00;;;;;;;15.17;100.00;-21094.06;5056824;28;20474;-71
2021/08/23 03:36:48;;;;;;;1.67;0.97;;;;;;;15.08;100.00;-21091.56;5055141;28;20486;-71
2021/08/23 03:39:20;;;;;;;0.70;0.60;;;;;;;15.08;100.00;-21091.56;5055674;28;20495;-71
2021/08/23 03:41:47;;;;;;;0.70;0.63;;;;;;;15.07;100.00;-21091.16;5054248;28;20458;-71
2021/08/23 03:44:14;;;;;;;0.70;0.60;;;;;;;15.11;100.00;-21092.41;5054919;28;20423;-72
2021/08/23 03:46:42;;;;;;;0.80;0.73;;;;;;;15.22;100.00;-21095.44;5055890;28;20430;-72
2021/08/23 03:49:09;;;;;;;0.70;0.70;;;;;;;15.18;100.00;-21094.31;5055398;28;20474;-72
2021/08/23 03:51:37;;;;;;;0.70;0.60;;;;;;;15.31;100.00;-21097.75;5055814;28;20409;-72
2021/08/23 03:54:04;;;;;;;0.80;0.80;;;;;;;15.37;100.00;-21099.28;5055753;28;20465;-71
2021/08/23 03:56:31;;;;;;;1.00;1.00;;;;;;;15.43;100.00;-21100.94;5055072;28;20457;-71
2021/08/23 03:58:58;;;;;;;0.70;0.70;;;;;;;15.41;100.00;-21100.50;5054811;28;20437;-72
2021/08/23 04:01:25;;;;;;;1.90;1.80;;;;;;;15.46;100.00;-21101.88;5053376;28;20980;-71
2021/08/23 04:03:52;;;;;;;0.70;0.70;;;;;;;15.52;100.00;-21103.41;5055447;28;20529;-72
2021/08/23 04:06:19;;;;;;;0.70;0.70;;;;;;;15.67;100.00;-21107.41;5070589;28;20451;-71
2021/08/23 04:08:47;;;;;;;1.57;1.10;;;;;;;15.68;100.00;-21107.81;5054932;28;20565;-72
2021/08/23 04:11:15;;;;;;;0.70;0.70;;;;;;;15.70;100.00;-21108.22;5082060;28;20537;-71
2021/08/23 04:13:42;;;;;;;0.73;0.70;;;;;;;15.77;100.00;-21110.00;5054828;28;20487;-71
2021/08/23 04:16:12;;;;;;;0.80;0.80;;;;;;;15.73;100.00;-21109.03;5054839;28;20440;-71
2021/08/23 04:18:39;;;;;;;0.70;0.70;;;;;;;15.75;100.00;-21109.44;5052440;28;20541;-71
2021/08/23 04:21:06;;;;;;;0.70;0.70;;;;;;;15.78;100.00;-21110.41;5052481;28;20492;-71
2021/08/23 04:23:35;;;;;;;0.70;0.60;;;;;;;15.83;100.00;-21111.78;5054671;28;20585;-71
2021/08/23 04:26:03;;;;;;;1.10;0.90;;;;;;;15.98;100.00;-21115.63;5053240;28;20441;-71
2021/08/23 04:28:30;;;;;;;1.87;1.10;;;;;;;16.07;100.00;-21118.25;5053602;28;20454;-71
2021/08/23 04:30:57;;;;;;;0.77;0.73;;;;;;;16.09;100.00;-21118.66;5052389;28;20416;-71
2021/08/23 04:33:24;;;;;;;0.70;0.70;;;;;;;16.18;100.00;-21121.13;5048947;28;20440;-71
2021/08/23 04:35:51;;;;;;;1.00;1.00;;;;;;;16.23;100.00;-21122.38;5052757;28;20447;-72
2021/08/23 04:38:19;;;;;;;0.70;0.60;;;;;;;16.28;100.00;-21123.88;5051667;28;20489;-71
2021/08/23 04:40:46;;;;;;;0.70;0.70;;;;;;;16.36;100.00;-21126.06;5052752;28;20417;-71
2021/08/23 04:43:14;;;;;;;0.70;0.67;;;;;;;16.42;100.00;-21127.72;5050403;28;20446;-74
2021/08/23 04:45:41;;;;;;;0.73;0.70;;;;;;;16.53;100.00;-21130.47;5052707;28;20705;-71
2021/08/23 04:48:08;;;;;;;0.70;0.60;;;;;;;16.59;100.00;-21132.13;5052840;28;20844;-71
2021/08/23 04:50:35;;;;;;;0.70;0.60;;;;;;;16.68;100.00;-21134.59;5052433;28;20437;-71
2021/08/23 04:53:03;;;;;;;0.70;0.70;;;;;;;16.64;100.00;-21133.50;5053114;28;20473;-72
2021/08/23 04:55:30;;;;;;;1.10;1.00;;;;;;;16.60;100.00;-21132.53;5054323;28;20508;-71
2021/08/23 04:57:58;;;;;;;0.80;0.70;;;;;;;16.50;100.00;-21129.66;5052852;28;20452;-71
2021/08/23 05:00:28;;;;;;;0.80;0.80;;;;;;;16.34;100.00;-21125.38;5054536;28;20840;-71
2021/08/23 05:02:55;;;;;;;0.70;0.70;;;;;;;16.21;100.00;-21121.81;5053443;28;20450;-71
2021/08/23 05:05:22;;;;;;;0.70;0.67;;;;;;;16.11;100.00;-21119.22;5054584;28;20427;-71
2021/08/23 05:07:48;;;;;;;0.70;0.70;;;;;;;16.30;100.00;-21124.44;5054042;28;20452;-71
2021/08/23 05:10:17;;;;;;;0.73;0.73;;;;;;;16.28;100.00;-21123.88;5054380;28;20446;-71
2021/08/23 05:12:44;;;;;;;0.70;0.70;;;;;;;16.24;100.00;-21122.63;5086198;28;20498;-71
2021/08/23 05:15:11;;;;;;;1.00;0.90;;;;;;;16.29;100.00;-21124.16;5053900;28;20494;-71
2021/08/23 05:17:39;;;;;;;0.70;0.60;;;;;;;16.35;100.00;-21125.66;5053780;28;20978;-71
2021/08/23 05:20:08;;;;;;;0.70;0.67;;;;;;;16.41;100.00;-21127.44;5053942;28;20772;-71
2021/08/23 05:22:37;;;;;;;0.70;0.60;;;;;;;16.54;100.00;-21130.88;5052608;28;20450;-70
2021/08/23 05:25:05;;;;;;;0.80;0.80;;;;;;;16.72;100.00;-21135.56;5053954;28;20435;-71
2021/08/23 05:27:32;;;;;;;0.70;0.60;;;;;;;16.78;100.00;-21137.34;5053769;28;20426;-70
2021/08/23 05:30:01;;;;;;;0.80;0.80;;;;;;;16.69;100.00;-21134.88;5052800;28;20433;-71
2021/08/23 05:32:28;;;;;;;0.80;0.80;;;;;;;16.70;100.00;-21135.00;5051989;28;20448;-70
2021/08/23 05:34:56;;;;;;;1.73;1.63;;;;;;;16.69;100.00;-21134.88;5053735;28;20465;-70
2021/08/23 05:37:23;;;;;;;0.70;0.70;;;;;;;16.64;100.00;-21133.50;5053811;28;20438;-70
2021/08/23 05:39:51;;;;;;;0.70;0.67;;;;;;;16.62;100.00;-21133.06;5086052;28;20471;-70
2021/08/23 05:42:19;;;;;;;0.70;0.60;;;;;;;16.55;100.00;-21131.16;5053504;28;20438;-71
2021/08/23 05:44:46;;;;;;;0.70;0.70;;;;;;;16.52;100.00;-21130.19;5053759;28;20515;-72
2021/08/23 05:47:13;;;;;;;0.80;0.70;;;;;;;16.58;100.00;-21131.84;5053270;28;20435;-70
2021/08/23 05:49:40;;;;;;;0.70;0.70;;;;;;;16.71;100.00;-21135.28;5053342;28;20805;-70
2021/08/23 05:52:08;;;;;;;0.70;0.60;;;;;;;16.87;100.00;-21139.81;5053545;28;20464;-70
2021/08/23 05:54:37;;;;;;;0.70;0.60;;;;;;;17.10;100.00;-21145.84;5053598;28;20905;-71
2021/08/23 05:57:05;;;;;;;0.70;0.60;;;;;;;17.24;100.00;-21149.53;5052787;28;20442;-70
2021/08/23 05:59:32;;;;;;;1.53;1.43;;;;;;;17.24;100.00;-21149.69;5053520;28;20931;-70
2021/08/23 06:01:59;;;;;;;0.80;0.70;;;;;;;17.33;100.00;-21152.16;5052080;28;20842;-71
2021/08/23 06:04:27;;;;;;;0.70;0.60;;;;;;;17.41;100.00;-21154.22;5053702;28;20612;-71
2021/08/23 06:06:54;;;;;;;0.90;0.90;;;;;;;17.48;100.00;-21156.00;5056251;28;20433;-71
2021/08/23 06:09:22;;;;;;;0.70;0.60;;;;;;;17.49;100.00;-21156.25;5057284;28;20981;-71
2021/08/23 06:11:53;;;;;;;0.73;0.70;;;;;;;17.56;100.00;-21158.31;5055795;28;20438;-71
2021/08/23 06:14:20;;;;;;;0.70;0.70;;;;;;;17.63;100.00;-21160.09;5056658;28;20469;-70
2021/08/23 06:16:47;;;;;;;0.80;0.80;;;;;;;17.77;100.00;-21163.94;5057220;28;20437;-71
2021/08/23 06:19:14;;;;;;;1.00;0.90;;;;;;;17.83;100.00;-21165.59;5056799;28;20526;-70
2021/08/23 06:21:41;;;;;;;0.70;0.60;;;;;;;17.75;100.00;-21163.25;5057251;28;20439;-71
2021/08/23 06:24:08;;;;;;;0.80;0.80;;;;;;;17.78;100.00;-21164.22;5055915;28;20563;-70
2021/08/23 06:26:36;;;;;;;0.87;0.87;;;;;;;17.76;100.00;-21163.66;5056915;28;20454;-71
2021/08/23 06:29:05;;;;;;;0.70;0.70;;;;;;;17.85;100.00;-21166.13;5056243;28;20443;-71
2021/08/23 06:31:32;;;;;;;1.23;1.13;;;;;;;17.98;100.00;-21169.44;5056024;28;20415;-70
2021/08/23 06:34:00;;;;;;;0.97;0.97;;;;;;;18.07;100.00;-21171.88;5056749;28;20477;-71
2021/08/23 06:36:27;;;;;;;0.80;0.70;;;;;;;18.14;100.00;-21173.81;5043916;28;20491;-71
2021/08/23 06:38:54;;;;;;;0.70;0.70;;;;;;;18.09;100.00;-21172.44;5035945;28;20479;-70
2021/08/23 06:41:21;;;;;;;0.70;0.70;;;;;;;18.17;100.00;-21174.63;5035789;28;20398;-70
2021/08/23 06:43:50;;;;;;;1.10;0.80;;;;;;;18.27;100.00;-21177.38;5036814;28;20877;-71
2021/08/23 06:46:17;;;;;;;0.70;0.70;;;;;;;18.35;100.00;-21179.56;5037071;28;20436;-71
2021/08/23 06:48:45;;;;;;;0.80;0.80;;;;;;;18.40;100.00;-21001.25;5035556;28;20438;-71
2021/08/23 06:51:13;;;;;;;0.70;0.67;;;;;;;18.51;100.00;-20687.19;5052488;28;20523;-71
2021/08/23 06:53:40;;;;;;;0.70;0.60;;;;;;;18.63;100.00;-20258.91;5035409;28;20469;-71
2021/08/23 06:56:07;;;;;;;0.80;0.70;;;;;;;18.76;100.00;-19777.50;5036875;28;20559;-71
2021/08/23 06:58:34;;;;;;;0.83;0.83;;;;;;;18.80;100.00;-19352.13;5036274;28;20425;-71
2021/08/23 07:01:03;;;;;;;0.90;0.90;;;;;;;18.99;100.00;-18711.41;5037128;28;20402;-71
2021/08/23 07:03:31;;;;;;;0.70;0.60;;;;;;;19.20;100.00;-18040.38;5052005;28;20442;-73
2021/08/23 07:05:59;;;;;;;0.80;0.70;;;;;;;19.38;100.00;-17286.59;5049337;28;20516;-71
2021/08/23 07:08:43;;;;;;;1.20;1.10;;;;;;;19.55;100.00;-16486.25;5050491;28;20438;-71
2021/08/23 07:11:11;;;;;;;0.70;0.70;;;;;;;19.55;100.00;-15750.94;5056632;28;20766;-70
2021/08/23 07:13:38;;;;;;;1.20;1.07;;;;;;;19.63;100.00;-15006.66;5055534;28;20448;-71
2021/08/23 07:16:07;;;;;;;0.80;0.70;;;;;;;19.70;100.00;-14284.75;5087982;28;20472;-71
2021/08/23 07:18:35;;;;;;;0.70;0.70;;;;;;;19.66;100.00;-13588.84;5054469;28;20417;-71
2021/08/23 07:21:02;;;;;;;0.70;0.70;;;;;;;19.56;100.00;-12851.44;5054959;28;20497;-71
2021/08/23 07:23:30;;;;;;;1.00;0.90;;;;;;;19.46;100.00;-12457.84;5055866;28;20480;-71
2021/08/23 07:25:57;;;;;;;0.70;0.70;;;;;;;19.48;100.00;-11678.72;5038319;28;20402;-71
2021/08/23 07:28:26;;;;;;;0.80;0.80;;;;;;;19.40;100.00;-11326.22;5054654;28;20411;-71
2021/08/23 07:30:54;;;;;;;1.93;1.83;;;;;;;19.55;100.00;-10400.25;5056027;28;20398;-70
2021/08/23 07:33:22;;;;;;;0.80;0.80;;;;;;;19.53;100.00;-10259.91;5054808;28;20432;-71
2021/08/23 07:35:50;;;;;;;0.70;0.70;;;;;;;19.49;100.00;-9905.19;5055376;28;20486;-71
2021/08/23 07:38:17;;;;;;;1.10;1.00;;;;;;;19.41;100.00;-9884.06;5055709;28;20539;-71
2021/08/23 07:40:44;;;;;;;0.80;0.80;;;;;;;19.41;100.00;-9868.81;5055859;28;20438;-71
2021/08/23 07:43:11;;;;;;;2.00;1.80;;;;;;;19.64;100.00;-9674.47;5055315;28;20394;-71
2021/08/23 07:45:38;;;;;;;0.80;0.77;;;;;;;19.57;100.00;-9587.19;5054333;28;20956;-71
2021/08/23 07:48:05;;;;;;;1.00;0.80;;;;;;;19.78;100.00;-10022.50;5055356;28;20414;-71
2021/08/23 07:50:35;;;;;;;1.17;1.10;;;;;;;20.02;100.00;-10465.97;5055239;28;20480;-71
2021/08/23 07:53:03;;;;;;;1.67;1.53;;;;;;;20.17;100.00;-11755.63;5055603;28;20517;-71
2021/08/23 07:55:31;;;;;;;0.70;0.67;;;;;;;20.54;100.00;-13361.97;5055345;28;20495;-71
2021/08/23 07:58:00;;;;;;;6.00;1.73;;;;;;;20.72;100.00;-17237.75;5053219;28;20510;-71
2021/08/23 08:00:34;;;;;;;1.93;1.83;;;;;;;20.90;100.00;-21220.28;5055656;28;20380;-71
2021/08/23 08:03:01;;;;;;;0.70;0.70;;;;;;;20.80;100.00;-21244.91;5087449;28;20433;-71
2021/08/23 08:05:30;;;;;;;2.50;2.30;;;;;;;20.67;100.00;-21241.50;5055334;28;20407;-70
2021/08/23 08:07:58;;;;;;;0.70;0.60;;;;;;;20.51;100.00;-21237.28;5053489;28;20861;-71
2021/08/23 08:10:26;;;;;;;2.07;1.10;;;;;;;20.53;100.00;-21237.81;5055262;28;20410;-71
2021/08/23 08:12:53;;;;;;;0.80;0.70;;;;;;;20.65;100.00;-21240.97;5054482;28;20969;-71
2021/08/23 08:15:20;;;;;;;0.97;0.83;;;;;;;20.80;100.00;-21244.91;5055174;28;20464;-71
2021/08/23 08:17:47;;;;;;;0.73;0.73;;;;;;;21.15;100.00;-21254.47;5054118;28;20472;-71
2021/08/23 08:20:15;;;;;;;1.03;0.93;;;;;;;20.96;100.00;-21249.28;5054880;28;20457;-71
2021/08/23 08:22:44;;;;;;;1.43;1.30;;;;;;;20.97;100.00;-21249.56;5054837;28;20444;-71
2021/08/23 08:25:13;;;;;;;0.70;0.60;;;;;;;20.77;100.00;-21244.25;5055130;28;20457;-71
2021/08/23 08:27:40;;;;;;;1.37;1.27;;;;;;;20.48;100.00;-21236.59;5053466;28;20451;-71
2021/08/23 08:30:09;;;;;;;0.80;0.80;;;;;;;20.49;100.00;-21236.88;5054121;28;20400;-71
2021/08/23 08:32:36;;;;;;;1.20;1.07;;;;;;;20.41;100.00;-21234.69;5054459;28;20868;-71
2021/08/23 08:35:08;;;;;;;0.90;0.90;;;;;;;20.49;100.00;-21236.72;5054117;28;20506;-71
2021/08/23 08:37:35;;;;;;;1.20;1.00;;;;;;;20.39;100.00;-21234.00;5054446;28;20736;-71
2021/08/23 08:40:04;;;;;;;0.90;0.90;;;;;;;20.57;100.00;-21238.91;5054851;28;20439;-71
2021/08/23 08:42:32;;;;;;;0.80;0.77;;;;;;;20.64;100.00;-21240.81;5053473;28;20943;-71
2021/08/23 08:45:00;;;;;;;0.80;0.70;;;;;;;20.91;100.00;-21247.91;5053557;28;20456;-71
2021/08/23 08:47:29;;;;;;;0.80;0.73;;;;;;;21.19;100.00;-21255.56;5054509;28;20424;-72
2021/08/23 08:49:58;;;;;;;0.70;0.60;;;;;;;21.42;100.00;-21261.69;5053282;28;20387;-71
2021/08/23 08:52:26;;;;;;;0.80;0.80;;;;;;;21.29;100.00;-21258.16;5054435;28;20742;-71
2021/08/23 08:54:54;;;;;;;0.70;0.67;;;;;;;21.23;100.00;-21256.66;5054337;28;20416;-71
2021/08/23 08:57:21;;;;;;;1.33;1.23;;;;;;;21.23;100.00;-21256.66;5053979;28;20466;-71
2021/08/23 08:59:49;;;;;;;1.00;0.97;;;;;;;21.11;100.00;-21253.38;5053061;28;20547;-71
2021/08/23 09:02:17;;;;;;;0.70;0.63;;;;;;;21.08;100.00;-21252.56;5053125;28;20448;-71
2021/08/23 09:04:45;;;;;;;0.70;0.60;;;;;;;21.17;100.00;-21255.03;5053931;28;20403;-72
2021/08/23 09:07:13;;;;;;;1.40;1.03;;;;;;;21.25;100.00;-21256.94;5054157;28;20432;-71
2021/08/23 09:09:46;;;;;;;0.80;0.70;;;;;;;21.12;100.00;-21253.66;5054230;28;20517;-71
2021/08/23 09:12:14;;;;;;;1.00;0.90;;;;;;;20.98;100.00;-21249.84;5050482;28;20862;-70
2021/08/23 09:14:51;;;;;;;0.80;0.70;;;;;;;20.43;100.00;-21235.09;5052678;28;20855;-70
2021/08/23 09:17:21;;;;;;;1.10;1.00;;;;;;;19.97;100.00;-21222.78;5054263;28;20416;-71
2021/08/23 09:19:57;;;;;;;1.10;1.00;;;;;;;19.82;100.00;-21218.84;5053067;28;20402;-71
2021/08/23 09:22:25;;;;;;;1.00;0.90;;;;;;;19.89;100.00;-21220.63;5053059;28;20410;-71
2021/08/23 09:24:53;;;;;;;0.70;0.60;;;;;;;20.09;100.00;-21226.06;5053947;28;20399;-71
2021/08/23 09:27:19;;;;;;;0.80;0.80;;;;;;;20.24;100.00;-21230.16;5052503;28;20949;-71
2021/08/23 09:29:59;;;;;;;0.70;0.70;;;;;;;20.44;100.00;-21235.50;5053957;28;20898;-71
2021/08/23 09:32:28;;;;;;;1.00;0.90;;;;;;;20.38;100.00;-21233.72;5053931;28;20467;-72
2021/08/23 09:34:56;;;;;;;1.20;1.10;;;;;;;20.33;100.00;-21232.34;5053815;28;20515;-71
2021/08/23 09:37:27;;;;;;;1.47;1.37;;;;;;;20.14;100.00;-21227.31;5033956;28;20408;-71
2021/08/23 09:39:55;;;;;;;0.80;0.70;;;;;;;19.70;100.00;-20090.34;5032446;28;20438;-71
2021/08/23 09:42:25;;;;;;;1.03;1.00;;;;;;;19.38;100.00;-16925.41;5032923;28;20429;-71
2021/08/23 09:44:55;;;;;;;1.57;1.47;;;;;;;19.10;100.00;-13440.63;5040868;28;20955;-70
2021/08/23 09:47:27;;;;;;;0.70;0.67;;;;;;;18.89;100.00;-8427.63;5052439;28;20453;-70
2021/08/23 09:49:58;;;;;;;0.90;0.90;;;;;;;18.79;100.00;-4177.91;5034794;28;20450;-69
2021/08/23 09:52:30;;;;;;;0.70;0.67;;;;;;;19.18;100.00;1572.25;5053261;28;20980;-70
2021/08/23 09:55:01;;;;;;;1.00;0.90;;;;;;;19.64;100.00;4456.22;5053630;28;20383;-70
2021/08/23 09:57:32;;;;;;;1.70;1.60;;;;;;;19.91;100.00;6328.19;5052758;28;20440;-69
2021/08/23 10:00:03;;;;;;;0.80;0.70;;;;;;;19.89;100.00;6409.84;5052207;28;20446;-69
2021/08/23 10:02:45;;;;;;;1.10;1.00;;;;;;;19.70;100.00;6862.78;5051762;28;20395;-70
2021/08/23 10:05:38;;;;;;;0.80;0.80;;;;;;;19.36;100.00;5750.28;5053713;28;20774;-71
2021/08/23 10:08:06;;;;;;;1.50;1.40;;;;;;;19.35;100.00;5719.38;5053532;28;20453;-70
2021/08/23 10:10:34;;;;;;;1.13;1.03;;;;;;;19.78;100.00;7151.25;5053497;28;20414;-70
2021/08/23 10:13:03;;;;;;;1.57;1.47;;;;;;;19.93;100.00;7251.50;5052926;28;20383;-70
2021/08/23 10:15:31;;;;;;;0.70;0.67;;;;;;;20.95;100.00;8292.69;5053542;28;20939;-70
2021/08/23 10:18:01;;;;;;;0.80;0.80;;;;;;;22.32;100.00;8219.94;5035712;28;20774;-69
2021/08/23 10:20:28;;;;;;;0.80;0.70;;;;;;;22.87;100.00;1818.25;5052978;28;20391;-70
2021/08/23 10:22:56;;;;;;;0.80;0.70;;;;;;;23.64;100.00;-12755.00;5053439;28;20476;-70
2021/08/23 10:25:23;;;;;;;1.47;0.90;;;;;;;23.81;100.00;-21325.28;5053358;28;20955;-71
2021/08/23 10:28:05;;;;;;;1.37;1.30;;;;;;;23.90;100.00;-21327.59;5052336;28;20503;-71
2021/08/23 10:30:33;;;;;;;0.73;0.67;;;;;;;23.54;100.00;-21318.22;5053414;28;20423;-71
2021/08/23 10:33:11;;;;;;;0.70;0.60;;;;;;;24.03;100.00;-21331.13;5052981;28;20466;-71
2021/08/23 10:35:46;;;;;;;0.70;0.57;;;;;;;24.65;100.00;-21347.56;5085242;28;20495;-70
2021/08/23 10:38:16;;;;;;;1.20;0.80;;;;;;;24.91;100.00;-21354.59;5052771;28;20451;-69
2021/08/23 10:40:44;;;;;;;0.80;0.77;;;;;;;25.13;100.00;-21360.31;5053119;28;20415;-70
2021/08/23 10:43:12;;;;;;;1.33;1.20;;;;;;;25.26;100.00;-21363.97;5084483;28;20542;-71
2021/08/23 10:45:41;;;;;;;0.70;0.60;;;;;;;24.73;100.00;-21349.72;5051806;28;20428;-71
2021/08/23 10:48:13;;;;;;;0.70;0.60;;;;;;;24.30;100.00;-21338.47;5051366;28;20894;-71
2021/08/23 10:50:57;;;;;;;0.70;0.60;;;;;;;23.76;100.00;-21323.91;5052553;28;20503;-72
2021/08/23 10:53:32;;;;;;;0.70;0.60;;;;;;;23.81;100.00;-21325.28;5056393;28;20850;-71
2021/08/23 10:56:11;;;;;;;0.70;0.60;;;;;;;23.03;100.00;-21304.47;5056769;28;20501;-71
2021/08/23 10:58:38;;;;;;;0.90;0.80;;;;;;;22.66;100.00;-21294.81;5055199;28;20471;-70
2021/08/23 11:01:18;;;;;;;1.00;0.90;;;;;;;21.76;100.00;-21270.56;5056569;28;20425;-71
2021/08/23 11:03:46;;;;;;;3.53;1.47;;;;;;;21.35;100.00;-21259.66;5055383;28;20938;-70
2021/08/23 11:06:14;;;;;;;1.67;1.23;;;;;;;21.03;100.00;-21251.06;5056606;28;20503;-70
2021/08/23 11:08:43;;;;;;;1.23;1.13;;;;;;;21.29;100.00;-21258.03;5055511;28;20477;-70
2021/08/23 11:11:11;;;;;;;0.90;0.73;;;;;;;21.61;100.00;-21266.59;5035312;28;20435;-70
2021/08/23 11:13:41;;;;;;;1.03;0.93;;;;;;;22.32;100.00;-21285.56;5043181;28;20439;-70
2021/08/23 11:16:09;;;;;;;2.27;1.70;;;;;;;23.24;100.00;-21310.06;5056432;28;20440;-72
2021/08/23 11:18:41;;;;;;;4.60;1.57;;;;;;;23.62;100.00;-21320.25;5056204;28;20956;-70
2021/08/23 11:21:16;;;;;;;0.83;0.80;;;;;;;22.91;100.00;-21301.34;5055150;28;20416;-71
2021/08/23 11:23:48;;;;;;;0.70;0.60;;;;;;;22.41;100.00;-21288.00;5056236;28;20447;-70
2021/08/23 11:26:21;;;;;;;0.80;0.80;;;;;;;21.62;100.00;-21267.03;5056554;28;20416;-72